Time;durP1;ratioP1;P1;durP2;ratioP2;P2;SDS_P1;SDS_P2;PMS_P1;PMS_P2;Temp;Humidity;BMP_temperature;BMP_pressure;BME280_temperature;BME280_humidity;BME280_pressure;Samples;Min_cycle;Max_cycle;Signal;HPM_P1;HPM_P2
2022/03/05 00:00:17;;;;;;;21.90;10.68;;;;;;;;;;4948299;28;20142;-61
2022/03/05 00:02:44;;;;;;;28.33;10.80;;;;;;;;;;4948905;28;20052;-61
2022/03/05 00:05:11;;;;;;;24.58;10.57;;;;;;;;;;4949514;28;20055;-61
2022/03/05 00:07:37;;;;;;;26.48;10.60;;;;;;;;;;4948338;28;20135;-61
2022/03/05 00:10:04;;;;;;;21.48;9.90;;;;;;;;;;4949626;28;20443;-61
2022/03/05 00:12:30;;;;;;;26.48;10.63;;;;;;;;;;4948726;28;20147;-61
2022/03/05 00:14:57;;;;;;;25.65;10.77;;;;;;;;;;4949446;28;20131;-61
2022/03/05 00:28:00;;;;;;;26.60;10.40;;;;;;;;;;4948645;28;20048;-61
2022/03/05 00:30:26;;;;;;;23.17;9.93;;;;;;;;;;4949151;28;20552;-61
2022/03/05 00:32:53;;;;;;;26.50;10.30;;;;;;;;;;4948307;28;20062;-61
2022/03/05 00:35:19;;;;;;;34.70;11.70;;;;;;;;;;4948876;28;20070;-61
2022/03/05 00:37:45;;;;;;;25.60;10.57;;;;;;;;;;4949677;28;20434;-61
2022/03/05 00:40:12;;;;;;;27.55;11.68;;;;;;;;;;4949580;28;20438;-61
2022/03/05 00:42:38;;;;;;;28.65;9.77;;;;;;;;;;4948643;28;20056;-61
2022/03/05 00:45:08;;;;;;;25.05;10.63;;;;;;;;;;4949054;28;20528;-61
2022/03/05 00:47:35;;;;;;;24.10;9.82;;;;;;;;;;4949284;28;20083;-61
2022/03/05 00:50:02;;;;;;;26.40;10.73;;;;;;;;;;4948999;28;20062;-61
2022/03/05 00:52:28;;;;;;;22.90;10.05;;;;;;;;;;4949890;28;20134;-61
2022/03/05 00:54:55;;;;;;;25.42;11.07;;;;;;;;;;4947815;28;20482;-61
2022/03/05 00:57:21;;;;;;;25.52;10.73;;;;;;;;;;4949603;28;20539;-61
2022/03/05 00:59:47;;;;;;;28.33;10.25;;;;;;;;;;4949256;28;20056;-61
2022/03/05 01:02:14;;;;;;;26.00;10.63;;;;;;;;;;4948946;28;20052;-61
2022/03/05 01:04:40;;;;;;;25.83;10.57;;;;;;;;;;4948127;28;20088;-61
2022/03/05 01:07:08;;;;;;;25.70;9.98;;;;;;;;;;4948894;28;20060;-61
2022/03/05 01:09:34;;;;;;;25.92;10.70;;;;;;;;;;4948819;28;20053;-61
2022/03/05 01:12:01;;;;;;;23.13;10.27;;;;;;;;;;4946744;28;20086;-61
2022/03/05 01:14:27;;;;;;;29.75;11.63;;;;;;;;;;4948749;28;20517;-61
2022/03/05 01:16:53;;;;;;;24.23;10.73;;;;;;;;;;4948323;28;20164;-61
2022/03/05 01:19:20;;;;;;;24.23;10.05;;;;;;;;;;4948741;28;20090;-61
2022/03/05 01:21:46;;;;;;;26.60;10.68;;;;;;;;;;4948782;28;20151;-61
2022/03/05 01:24:12;;;;;;;29.63;10.95;;;;;;;;;;4948481;28;20059;-61
2022/03/05 01:26:39;;;;;;;27.55;10.57;;;;;;;;;;4948000;28;20065;-61
2022/03/05 01:29:05;;;;;;;24.95;10.82;;;;;;;;;;4948431;28;20051;-61
2022/03/05 01:31:31;;;;;;;24.10;10.18;;;;;;;;;;4948944;28;20062;-61
2022/03/05 01:33:58;;;;;;;31.45;11.30;;;;;;;;;;4947996;28;20132;-61
2022/03/05 01:36:24;;;;;;;25.50;10.55;;;;;;;;;;4947963;28;20062;-61
2022/03/05 01:38:50;;;;;;;26.83;10.45;;;;;;;;;;4947724;28;20764;-61
2022/03/05 01:41:17;;;;;;;25.80;10.40;;;;;;;;;;4948678;28;20585;-61
2022/03/05 01:43:48;;;;;;;25.55;9.98;;;;;;;;;;4948574;28;20062;-61
2022/03/05 01:46:14;;;;;;;27.75;11.80;;;;;;;;;;4947722;28;20146;-61
2022/03/05 01:48:41;;;;;;;29.02;11.48;;;;;;;;;;4948561;28;20062;-61
2022/03/05 01:51:07;;;;;;;30.40;12.38;;;;;;;;;;4948418;28;20502;-62
2022/03/05 01:53:34;;;;;;;28.38;10.93;;;;;;;;;;4947475;28;22105;-61
2022/03/05 01:56:00;;;;;;;26.85;10.68;;;;;;;;;;4947354;28;20602;-61
2022/03/05 01:58:27;;;;;;;26.63;10.30;;;;;;;;;;4948869;28;20131;-60
2022/03/05 02:00:54;;;;;;;26.52;10.55;;;;;;;;;;4947620;28;20059;-60
2022/03/05 02:03:20;;;;;;;25.50;10.00;;;;;;;;;;4931881;28;20119;-60
2022/03/05 02:05:47;;;;;;;25.80;10.32;;;;;;;;;;4947576;28;20533;-60
2022/03/05 02:08:13;;;;;;;25.55;10.98;;;;;;;;;;4948765;28;20051;-60
2022/03/05 02:10:39;;;;;;;24.55;10.32;;;;;;;;;;4946864;28;20056;-61
2022/03/05 02:13:06;;;;;;;27.02;10.65;;;;;;;;;;4947601;28;20593;-61
2022/03/05 02:15:33;;;;;;;26.70;10.73;;;;;;;;;;4947425;28;20059;-61
2022/03/05 02:18:00;;;;;;;25.27;10.07;;;;;;;;;;4947424;28;20135;-61
2022/03/05 02:20:28;;;;;;;28.10;10.82;;;;;;;;;;4947749;28;20502;-61
2022/03/05 02:22:55;;;;;;;24.55;10.00;;;;;;;;;;4947900;28;20047;-61
2022/03/05 02:25:21;;;;;;;30.67;11.73;;;;;;;;;;4947616;28;20064;-60
2022/03/05 02:27:47;;;;;;;28.48;10.38;;;;;;;;;;4947826;28;20075;-60
2022/03/05 02:30:14;;;;;;;28.27;11.18;;;;;;;;;;4949942;28;20062;-60
2022/03/05 02:32:40;;;;;;;24.65;10.68;;;;;;;;;;4950968;28;20146;-61
2022/03/05 02:35:06;;;;;;;29.00;11.07;;;;;;;;;;4951001;28;20066;-61
2022/03/05 02:37:33;;;;;;;26.73;10.38;;;;;;;;;;4950798;28;20062;-61
2022/03/05 02:39:59;;;;;;;24.30;10.63;;;;;;;;;;4951465;28;20063;-60
2022/03/05 02:42:25;;;;;;;27.55;10.70;;;;;;;;;;4949272;28;20080;-61
2022/03/05 02:44:52;;;;;;;23.30;11.40;;;;;;;;;;4951539;28;20066;-60
2022/03/05 02:47:19;;;;;;;26.05;10.20;;;;;;;;;;4950642;28;20143;-60
2022/03/05 02:49:45;;;;;;;27.92;11.73;;;;;;;;;;4950674;28;20048;-60
2022/03/05 02:52:11;;;;;;;33.13;11.23;;;;;;;;;;4951643;28;20069;-61
2022/03/05 02:54:38;;;;;;;27.88;10.80;;;;;;;;;;4950352;28;20085;-60
2022/03/05 02:57:05;;;;;;;24.88;10.38;;;;;;;;;;4950390;28;20059;-60
2022/03/05 02:59:31;;;;;;;28.27;10.95;;;;;;;;;;4950905;28;20155;-60
2022/03/05 03:01:57;;;;;;;26.98;11.27;;;;;;;;;;4950647;28;20048;-60
2022/03/05 03:04:24;;;;;;;27.85;10.48;;;;;;;;;;4949779;28;20107;-60
2022/03/05 03:06:50;;;;;;;30.30;10.55;;;;;;;;;;4949684;28;20078;-60
2022/03/05 03:09:17;;;;;;;26.23;10.25;;;;;;;;;;4951735;28;20154;-60
2022/03/05 03:11:43;;;;;;;28.25;11.05;;;;;;;;;;4949077;28;20066;-60
2022/03/05 03:14:10;;;;;;;25.35;10.55;;;;;;;;;;4949321;28;20051;-60
2022/03/05 03:16:36;;;;;;;29.55;10.45;;;;;;;;;;4950594;28;20067;-60
2022/03/05 03:19:02;;;;;;;25.25;10.75;;;;;;;;;;4950863;28;20087;-60
2022/03/05 03:21:29;;;;;;;33.45;10.70;;;;;;;;;;4950195;28;20077;-60
2022/03/05 03:23:55;;;;;;;26.95;11.45;;;;;;;;;;4950123;28;20078;-60
2022/03/05 03:26:21;;;;;;;27.55;10.48;;;;;;;;;;4948834;28;20052;-60
2022/03/05 03:28:48;;;;;;;28.00;11.32;;;;;;;;;;4950135;28;20516;-60
2022/03/05 03:31:14;;;;;;;30.83;11.07;;;;;;;;;;4950944;28;20154;-60
2022/03/05 03:33:40;;;;;;;26.67;10.82;;;;;;;;;;4949503;28;20557;-60
2022/03/05 03:36:06;;;;;;;28.75;11.70;;;;;;;;;;4949888;28;20051;-60
2022/03/05 03:38:33;;;;;;;31.73;11.30;;;;;;;;;;4950482;28;20492;-60
2022/03/05 03:40:59;;;;;;;28.38;11.15;;;;;;;;;;4950284;28;20146;-60
2022/03/05 03:43:25;;;;;;;26.20;10.70;;;;;;;;;;4951119;28;20056;-60
2022/03/05 03:45:52;;;;;;;27.73;11.15;;;;;;;;;;4949229;28;20059;-60
2022/03/05 03:48:18;;;;;;;30.02;11.80;;;;;;;;;;4949593;28;20067;-60
2022/03/05 03:50:44;;;;;;;26.15;10.95;;;;;;;;;;4949889;28;20061;-60
2022/03/05 03:53:11;;;;;;;28.73;11.48;;;;;;;;;;4950366;28;20538;-60
2022/03/05 03:55:37;;;;;;;31.42;12.10;;;;;;;;;;4949926;28;20178;-60
2022/03/05 03:58:04;;;;;;;32.20;11.57;;;;;;;;;;4949783;28;20051;-60
2022/03/05 04:00:30;;;;;;;28.25;11.60;;;;;;;;;;4949932;28;20106;-61
2022/03/05 04:02:57;;;;;;;28.58;11.10;;;;;;;;;;4950262;28;20603;-61
2022/03/05 04:05:23;;;;;;;28.48;11.15;;;;;;;;;;4948588;28;20087;-61
2022/03/05 04:10:34;;;;;;;30.90;11.77;;;;;;;;;;4947855;28;20051;-61
2022/03/05 04:13:01;;;;;;;32.13;11.95;;;;;;;;;;4950103;28;20499;-61
2022/03/05 04:15:27;;;;;;;29.70;11.25;;;;;;;;;;4949386;28;20055;-60
2022/03/05 04:17:53;;;;;;;32.13;11.35;;;;;;;;;;4949242;28;20447;-62
2022/03/05 04:20:20;;;;;;;27.73;10.70;;;;;;;;;;4949733;28;20058;-61
2022/03/05 04:22:46;;;;;;;32.60;11.75;;;;;;;;;;4949434;28;20074;-61
2022/03/05 04:25:13;;;;;;;33.08;12.18;;;;;;;;;;4949346;28;20152;-60
2022/03/05 04:27:39;;;;;;;32.13;11.40;;;;;;;;;;4948803;28;20044;-60
2022/03/05 04:30:06;;;;;;;34.30;13.57;;;;;;;;;;4949943;28;20056;-60
2022/03/05 04:32:32;;;;;;;31.88;11.82;;;;;;;;;;4949722;28;20060;-60
2022/03/05 04:34:59;;;;;;;32.70;11.80;;;;;;;;;;4948795;28;20059;-60
2022/03/05 04:37:25;;;;;;;32.45;12.07;;;;;;;;;;4950449;28;20139;-60
2022/03/05 04:39:51;;;;;;;34.03;13.48;;;;;;;;;;4949620;28;20095;-60
2022/03/05 04:42:18;;;;;;;30.08;11.35;;;;;;;;;;4949655;28;20581;-60
2022/03/05 04:44:44;;;;;;;34.53;12.55;;;;;;;;;;4949495;28;20069;-61
2022/03/05 04:47:11;;;;;;;29.92;12.30;;;;;;;;;;4948795;28;20111;-61
2022/03/05 04:49:38;;;;;;;32.38;11.93;;;;;;;;;;4947288;28;20066;-61
2022/03/05 04:52:04;;;;;;;32.70;11.70;;;;;;;;;;4947371;28;20060;-60
2022/03/05 04:54:33;;;;;;;33.80;13.15;;;;;;;;;;4949418;28;20055;-62
2022/03/05 04:57:00;;;;;;;32.05;13.38;;;;;;;;;;4949020;28;20095;-60
2022/03/05 04:59:26;;;;;;;30.58;11.75;;;;;;;;;;4949593;28;20081;-61
2022/03/05 05:01:53;;;;;;;33.88;12.65;;;;;;;;;;4948833;28;20059;-61
2022/03/05 05:04:19;;;;;;;35.28;12.52;;;;;;;;;;4949175;28;20449;-61
2022/03/05 05:06:45;;;;;;;35.35;12.88;;;;;;;;;;4949084;28;20147;-60
2022/03/05 05:09:12;;;;;;;34.45;12.75;;;;;;;;;;4949503;28;20062;-60
2022/03/05 05:11:39;;;;;;;29.80;11.50;;;;;;;;;;4948253;28;20558;-60
2022/03/05 05:14:06;;;;;;;35.00;12.85;;;;;;;;;;4948004;28;20057;-60
2022/03/05 05:16:32;;;;;;;31.40;12.40;;;;;;;;;;4947235;28;20434;-60
2022/03/05 05:21:43;;;;;;;31.95;12.70;;;;;;;;;;4949180;28;20123;-61
2022/03/05 05:24:10;;;;;;;33.88;12.63;;;;;;;;;;4949125;28;20459;-61
2022/03/05 05:26:36;;;;;;;30.42;13.00;;;;;;;;;;4949393;28;20058;-59
2022/03/05 05:29:03;;;;;;;36.00;13.05;;;;;;;;;;4948446;28;20051;-59
2022/03/05 05:31:29;;;;;;;32.17;12.48;;;;;;;;;;4948232;28;20518;-62
2022/03/05 05:33:56;;;;;;;34.42;13.30;;;;;;;;;;4949035;28;20517;-62
2022/03/05 05:36:22;;;;;;;33.35;12.77;;;;;;;;;;4949236;28;20066;-62
2022/03/05 05:38:49;;;;;;;36.33;13.20;;;;;;;;;;4947740;28;20059;-62
2022/03/05 05:41:16;;;;;;;30.73;12.77;;;;;;;;;;4949798;28;20062;-62
2022/03/05 05:43:42;;;;;;;34.67;13.93;;;;;;;;;;4948176;28;20052;-62
2022/03/05 05:46:08;;;;;;;31.55;13.18;;;;;;;;;;4948094;28;20087;-62
2022/03/05 05:48:52;;;;;;;35.20;13.80;;;;;;;;;;4948237;28;20544;-62
2022/03/05 05:51:18;;;;;;;35.08;14.45;;;;;;;;;;4948611;28;20527;-61
2022/03/05 05:53:45;;;;;;;33.00;13.80;;;;;;;;;;4947918;28;20433;-62
2022/03/05 05:56:11;;;;;;;34.78;13.35;;;;;;;;;;4949109;28;20089;-62
2022/03/05 05:58:37;;;;;;;42.72;14.55;;;;;;;;;;4948812;28;20055;-60
2022/03/05 06:01:03;;;;;;;34.25;13.88;;;;;;;;;;4947089;28;20056;-60
2022/03/05 06:03:30;;;;;;;34.45;13.18;;;;;;;;;;4947529;28;20503;-60
2022/03/05 06:06:00;;;;;;;33.67;14.13;;;;;;;;;;4952073;28;20581;-60
2022/03/05 06:08:27;;;;;;;34.92;14.18;;;;;;;;;;4952649;28;20142;-60
2022/03/05 06:10:54;;;;;;;35.40;13.80;;;;;;;;;;4950860;28;20151;-60
2022/03/05 06:13:20;;;;;;;37.17;13.73;;;;;;;;;;4951156;28;20146;-60
2022/03/05 06:15:47;;;;;;;38.70;13.68;;;;;;;;;;4951663;28;20051;-60
2022/03/05 06:18:13;;;;;;;34.45;12.52;;;;;;;;;;4951505;28;20066;-60
2022/03/05 06:20:40;;;;;;;33.72;13.70;;;;;;;;;;4951681;28;20059;-60
2022/03/05 06:23:06;;;;;;;37.67;13.13;;;;;;;;;;4949213;28;20066;-60
2022/03/05 06:25:33;;;;;;;36.08;13.30;;;;;;;;;;4952288;28;20506;-60
2022/03/05 06:27:59;;;;;;;33.83;12.85;;;;;;;;;;4933814;28;20052;-60
2022/03/05 06:30:26;;;;;;;41.50;13.82;;;;;;;;;;4952622;28;20423;-60
2022/03/05 06:32:52;;;;;;;35.58;13.80;;;;;;;;;;4950103;28;20051;-61
2022/03/05 06:35:19;;;;;;;38.40;12.68;;;;;;;;;;4950493;28;20107;-61
2022/03/05 06:37:45;;;;;;;32.17;13.45;;;;;;;;;;4951954;28;20150;-60
2022/03/05 06:40:12;;;;;;;39.78;13.80;;;;;;;;;;4952017;28;20055;-60
2022/03/05 06:42:39;;;;;;;38.30;14.07;;;;;;;;;;4950985;28;20069;-60
2022/03/05 06:45:08;;;;;;;39.00;14.25;;;;;;;;;;4952396;28;20052;-60
2022/03/05 06:47:34;;;;;;;37.55;14.40;;;;;;;;;;4950485;28;20063;-60
2022/03/05 06:50:06;;;;;;;37.08;13.77;;;;;;;;;;4951783;28;20060;-60
2022/03/05 06:52:32;;;;;;;41.88;15.65;;;;;;;;;;4950608;28;20094;-60
2022/03/05 06:54:59;;;;;;;38.88;14.05;;;;;;;;;;4950480;28;20074;-60
2022/03/05 06:57:26;;;;;;;37.75;13.65;;;;;;;;;;4951078;28;20506;-60
2022/03/05 06:59:53;;;;;;;34.67;13.60;;;;;;;;;;4951173;28;20099;-60
2022/03/05 07:02:19;;;;;;;39.05;13.82;;;;;;;;;;4951145;28;20526;-60
2022/03/05 07:04:46;;;;;;;37.13;12.88;;;;;;;;;;4950113;28;20055;-60
2022/03/05 07:07:12;;;;;;;38.55;14.25;;;;;;;;;;4949845;28;20067;-60
2022/03/05 07:09:38;;;;;;;38.50;14.57;;;;;;;;;;4951131;28;20138;-60
2022/03/05 07:12:06;;;;;;;39.20;13.85;;;;;;;;;;4950530;28;20059;-60
2022/03/05 07:14:32;;;;;;;40.33;15.80;;;;;;;;;;4950720;28;20066;-60
2022/03/05 07:16:59;;;;;;;38.70;13.00;;;;;;;;;;4948762;28;20063;-61
2022/03/05 07:19:25;;;;;;;38.47;14.35;;;;;;;;;;4949670;28;20047;-60
2022/03/05 07:21:51;;;;;;;34.58;13.38;;;;;;;;;;4949788;28;20051;-60
2022/03/05 07:24:18;;;;;;;38.03;14.05;;;;;;;;;;4950138;28;20087;-60
2022/03/05 07:26:44;;;;;;;36.60;12.82;;;;;;;;;;4950003;28;20047;-60
2022/03/05 07:29:10;;;;;;;37.63;13.70;;;;;;;;;;4951127;28;20066;-61
2022/03/05 07:31:38;;;;;;;41.75;15.02;;;;;;;;;;4950266;28;20142;-61
2022/03/05 07:34:04;;;;;;;41.22;15.07;;;;;;;;;;4950946;28;20065;-61
2022/03/05 07:36:31;;;;;;;39.95;15.25;;;;;;;;;;4950570;28;20492;-60
2022/03/05 07:38:57;;;;;;;38.63;13.82;;;;;;;;;;4950209;28;20139;-61
2022/03/05 07:41:23;;;;;;;38.58;13.68;;;;;;;;;;4949092;28;20071;-61
2022/03/05 07:43:51;;;;;;;37.83;14.93;;;;;;;;;;4947482;28;21464;-61
2022/03/05 07:46:17;;;;;;;41.67;14.23;;;;;;;;;;4949735;28;20059;-60
2022/03/05 07:48:43;;;;;;;44.90;15.55;;;;;;;;;;4948132;28;20059;-60
2022/03/05 07:51:10;;;;;;;43.03;16.15;;;;;;;;;;4950331;28;20062;-62
2022/03/05 07:53:36;;;;;;;38.90;14.18;;;;;;;;;;4949910;28;20052;-62
2022/03/05 07:56:02;;;;;;;34.65;13.23;;;;;;;;;;4948188;28;20814;-62
2022/03/05 07:58:29;;;;;;;40.13;14.82;;;;;;;;;;4948814;28;20112;-63
2022/03/05 08:00:55;;;;;;;33.72;13.15;;;;;;;;;;4948509;28;20092;-63
2022/03/05 08:03:21;;;;;;;38.05;15.13;;;;;;;;;;4950228;28;20056;-63
2022/03/05 08:05:48;;;;;;;37.53;15.10;;;;;;;;;;4949733;28;20161;-63
2022/03/05 08:08:14;;;;;;;39.00;14.35;;;;;;;;;;4947476;28;20056;-63
2022/03/05 08:10:41;;;;;;;45.28;16.50;;;;;;;;;;4948654;28;20062;-63
2022/03/05 08:13:07;;;;;;;41.78;15.02;;;;;;;;;;4949031;28;20883;-63
2022/03/05 08:15:33;;;;;;;41.38;15.43;;;;;;;;;;4949139;28;20903;-63
2022/03/05 08:18:00;;;;;;;40.75;14.68;;;;;;;;;;4931856;28;20529;-63
2022/03/05 08:20:28;;;;;;;40.45;15.73;;;;;;;;;;4949777;28;20078;-63
2022/03/05 08:22:55;;;;;;;45.67;15.25;;;;;;;;;;4949656;28;20066;-63
2022/03/05 08:25:22;;;;;;;43.78;15.80;;;;;;;;;;4949331;28;20146;-63
2022/03/05 08:27:48;;;;;;;39.65;15.18;;;;;;;;;;4947615;28;20530;-63
2022/03/05 08:30:16;;;;;;;39.17;14.40;;;;;;;;;;4947240;28;20068;-63
2022/03/05 08:32:42;;;;;;;40.40;14.68;;;;;;;;;;4945054;28;20055;-63
2022/03/05 08:35:09;;;;;;;42.05;14.48;;;;;;;;;;4949572;28;20063;-63
2022/03/05 08:37:36;;;;;;;41.05;15.80;;;;;;;;;;4950130;28;20059;-63
2022/03/05 08:40:03;;;;;;;47.08;15.65;;;;;;;;;;4949570;28;20528;-63
2022/03/05 08:42:30;;;;;;;46.53;16.85;;;;;;;;;;4949114;28;20541;-63
2022/03/05 08:44:56;;;;;;;41.25;15.23;;;;;;;;;;4949315;28;20062;-62
2022/03/05 08:47:22;;;;;;;40.63;15.80;;;;;;;;;;4947953;28;20062;-62
2022/03/05 08:49:49;;;;;;;42.30;15.75;;;;;;;;;;4948629;28;20156;-62
2022/03/05 08:52:15;;;;;;;35.78;15.52;;;;;;;;;;4947702;28;20051;-63
2022/03/05 08:54:41;;;;;;;45.08;15.07;;;;;;;;;;4948527;28;20060;-63
2022/03/05 08:57:09;;;;;;;43.65;16.27;;;;;;;;;;4945422;28;20143;-63
2022/03/05 08:59:35;;;;;;;42.67;15.57;;;;;;;;;;4947278;28;20052;-63
2022/03/05 09:02:02;;;;;;;38.70;14.80;;;;;;;;;;4947876;28;20138;-63
2022/03/05 09:04:29;;;;;;;41.25;15.52;;;;;;;;;;4946884;28;20143;-63
2022/03/05 09:06:55;;;;;;;45.90;16.13;;;;;;;;;;4949255;28;20077;-63
2022/03/05 09:09:21;;;;;;;41.55;15.48;;;;;;;;;;4948990;28;20064;-63
2022/03/05 09:11:47;;;;;;;43.30;16.48;;;;;;;;;;4948452;28;20537;-63
2022/03/05 09:14:14;;;;;;;40.95;15.55;;;;;;;;;;4940774;28;20055;-63
2022/03/05 09:16:40;;;;;;;40.30;16.05;;;;;;;;;;4948534;28;20441;-63
2022/03/05 09:19:07;;;;;;;41.47;15.55;;;;;;;;;;4949150;28;20421;-63
2022/03/05 09:21:37;;;;;;;41.65;15.77;;;;;;;;;;4948099;28;20498;-62
2022/03/05 09:24:04;;;;;;;40.78;16.55;;;;;;;;;;4932534;28;20126;-62
2022/03/05 09:26:31;;;;;;;38.53;15.00;;;;;;;;;;4947282;28;20062;-63
2022/03/05 09:28:57;;;;;;;45.13;17.35;;;;;;;;;;4948840;28;20064;-62
2022/03/05 09:31:23;;;;;;;42.85;15.77;;;;;;;;;;4949141;28;20056;-62
2022/03/05 09:33:51;;;;;;;40.10;15.00;;;;;;;;;;4947490;28;20127;-62
2022/03/05 09:36:17;;;;;;;40.22;15.40;;;;;;;;;;4948214;28;20062;-62
2022/03/05 09:38:44;;;;;;;44.50;16.45;;;;;;;;;;4947572;28;20077;-63
2022/03/05 09:41:10;;;;;;;41.90;16.15;;;;;;;;;;4948573;28;20087;-63
2022/03/05 09:43:37;;;;;;;44.88;17.35;;;;;;;;;;4948713;28;20062;-63
2022/03/05 09:46:09;;;;;;;45.92;17.42;;;;;;;;;;4947586;28;20064;-63
2022/03/05 09:48:37;;;;;;;46.20;17.27;;;;;;;;;;4947414;28;20056;-63
2022/03/05 09:51:03;;;;;;;46.30;15.77;;;;;;;;;;4948043;28;20062;-63
2022/03/05 09:53:30;;;;;;;43.38;15.18;;;;;;;;;;4948891;28;20056;-63
2022/03/05 09:55:56;;;;;;;43.72;16.73;;;;;;;;;;4948611;28;20059;-63
2022/03/05 09:58:42;;;;;;;46.58;17.15;;;;;;;;;;4948133;28;20051;-63
2022/03/05 10:01:09;;;;;;;48.03;16.33;;;;;;;;;;4947631;28;20056;-63
2022/03/05 10:03:46;;;;;;;42.13;15.73;;;;;;;;;;4948169;28;20060;-63
2022/03/05 10:06:22;;;;;;;43.22;16.88;;;;;;;;;;4947114;28;20048;-63
2022/03/05 10:08:51;;;;;;;45.58;16.50;;;;;;;;;;4948096;28;20178;-63
2022/03/05 10:11:17;;;;;;;;;;;;;;;;;;4946702;28;20052;-62
2022/03/05 10:13:44;;;;;;;47.15;17.92;;;;;;;;;;4947231;28;44178;-62
2022/03/05 10:16:25;;;;;;;40.60;15.95;;;;;;;;;;4946424;28;20066;-62
2022/03/05 10:18:53;;;;;;;44.28;16.95;;;;;;;;;;4947541;28;20063;-62
2022/03/05 10:21:26;;;;;;;48.50;18.58;;;;;;;;;;4947379;28;20534;-61
2022/03/05 10:24:02;;;;;;;42.72;17.05;;;;;;;;;;4947546;28;20052;-62
2022/03/05 10:26:52;;;;;;;44.13;16.73;;;;;;;;;;4946067;28;20083;-62
2022/03/05 10:29:19;;;;;;;40.78;15.80;;;;;;;;;;4947982;28;20146;-61
2022/03/05 10:31:55;;;;;;;45.60;17.52;;;;;;;;;;4945924;28;20521;-61
2022/03/05 10:34:21;;;;;;;38.80;16.77;;;;;;;;;;4947226;28;20087;-61
2022/03/05 10:37:01;;;;;;;37.22;14.48;;;;;;;;;;4942450;28;20060;-61
2022/03/05 10:39:27;;;;;;;41.17;16.98;;;;;;;;;;4947865;28;20062;-62
2022/03/05 10:41:55;;;;;;;36.10;13.70;;;;;;;;;;4947848;28;20498;-61
2022/03/05 10:44:21;;;;;;;45.90;17.15;;;;;;;;;;4946572;28;20585;-67
2022/03/05 10:46:58;;;;;;;43.70;16.10;;;;;;;;;;4946163;28;20083;-64
2022/03/05 10:49:26;;;;;;;40.40;16.25;;;;;;;;;;4946941;28;20054;-64
2022/03/05 10:51:58;;;;;;;42.78;15.40;;;;;;;;;;4949760;28;20054;-65
2022/03/05 10:54:29;;;;;;;44.88;17.15;;;;;;;;;;4950933;28;20082;-65
2022/03/05 10:56:56;;;;;;;44.30;17.63;;;;;;;;;;4950761;28;20490;-65
2022/03/05 10:59:22;;;;;;;36.63;14.10;;;;;;;;;;4951365;28;20062;-65
2022/03/05 11:01:49;;;;;;;43.80;17.25;;;;;;;;;;4950926;28;20531;-65
2022/03/05 11:04:15;;;;;;;46.67;17.10;;;;;;;;;;4950969;28;20064;-65
2022/03/05 11:06:43;;;;;;;45.88;17.98;;;;;;;;;;4950801;28;20051;-65
2022/03/05 11:09:10;;;;;;;40.47;15.75;;;;;;;;;;4950721;28;20593;-65
2022/03/05 11:11:40;;;;;;;42.83;16.60;;;;;;;;;;4950979;28;20060;-65
2022/03/05 11:14:13;;;;;;;48.10;17.65;;;;;;;;;;4950281;28;20151;-65
2022/03/05 11:16:40;;;;;;;42.33;17.48;;;;;;;;;;4948633;28;20126;-65
2022/03/05 11:19:07;;;;;;;43.97;17.13;;;;;;;;;;4949952;28;20066;-65
2022/03/05 11:21:34;;;;;;;39.40;15.43;;;;;;;;;;4949615;28;20052;-65
2022/03/05 11:24:01;;;;;;;38.65;15.77;;;;;;;;;;4949229;28;20051;-65
2022/03/05 11:26:28;;;;;;;45.05;18.02;;;;;;;;;;4949058;28;20094;-65
2022/03/05 11:29:19;;;;;;;47.28;17.73;;;;;;;;;;4950358;28;20058;-65
2022/03/05 11:31:47;;;;;;;38.58;16.52;;;;;;;;;;4948953;28;20056;-65
2022/03/05 11:34:15;;;;;;;43.17;17.40;;;;;;;;;;4949310;28;20056;-65
2022/03/05 11:36:42;;;;;;;38.92;16.05;;;;;;;;;;4948903;28;20062;-65
2022/03/05 11:39:17;;;;;;;47.60;17.33;;;;;;;;;;4949427;28;20056;-65
2022/03/05 11:41:47;;;;;;;47.88;16.77;;;;;;;;;;4948470;28;20058;-65
2022/03/05 11:44:15;;;;;;;47.67;17.98;;;;;;;;;;4948717;28;20059;-65
2022/03/05 11:46:42;;;;;;;43.80;17.27;;;;;;;;;;4949350;28;20052;-65
2022/03/05 11:49:09;;;;;;;47.42;17.75;;;;;;;;;;4949173;28;20155;-66
2022/03/05 11:51:50;;;;;;;43.38;17.80;;;;;;;;;;4948929;28;20051;-65
2022/03/05 11:54:17;;;;;;;41.58;17.58;;;;;;;;;;4949038;28;20060;-65
2022/03/05 11:57:08;;;;;;;39.60;16.58;;;;;;;;;;4948463;28;20064;-65
2022/03/05 11:59:36;;;;;;;42.10;17.45;;;;;;;;;;4948482;28;20064;-65
2022/03/05 12:02:03;;;;;;;43.57;18.73;;;;;;;;;;4949099;28;20155;-65
2022/03/05 12:04:30;;;;;;;44.47;18.10;;;;;;;;;;4948531;28;20706;-65
2022/03/05 12:07:12;;;;;;;41.92;17.67;;;;;;;;;;4948184;28;20052;-66
2022/03/05 12:09:43;;;;;;;42.65;16.95;;;;;;;;;;4948755;28;20102;-65
2022/03/05 12:12:11;;;;;;;37.70;16.60;;;;;;;;;;4912458;28;1040543;-65
2022/03/05 12:14:57;;;;;;;45.58;18.23;;;;;;;;;;4950195;28;20059;-66
2022/03/05 12:17:23;;;;;;;42.72;18.60;;;;;;;;;;4949512;28;20399;-65
2022/03/05 12:19:50;;;;;;;41.25;18.73;;;;;;;;;;4949153;28;20052;-65
2022/03/05 12:22:16;;;;;;;38.30;16.77;;;;;;;;;;4949375;28;20077;-66
2022/03/05 12:24:43;;;;;;;43.22;17.10;;;;;;;;;;4949402;28;20088;-65
2022/03/05 12:27:13;;;;;;;37.78;16.17;;;;;;;;;;4949840;28;20061;-65
2022/03/05 12:29:46;;;;;;;39.30;16.48;;;;;;;;;;4949830;28;20506;-66
2022/03/05 12:32:13;;;;;;;46.55;17.65;;;;;;;;;;4949587;28;20052;-66
2022/03/05 12:34:40;;;;;;;39.78;17.10;;;;;;;;;;4949351;28;20067;-66
2022/03/05 12:37:06;;;;;;;40.70;17.38;;;;;;;;;;4949588;28;20052;-65
2022/03/05 12:39:32;;;;;;;40.13;16.27;;;;;;;;;;4949007;28;20056;-64
2022/03/05 12:41:59;;;;;;;41.72;17.40;;;;;;;;;;4949151;28;20458;-64
2022/03/05 12:44:32;;;;;;;39.40;17.13;;;;;;;;;;4949434;28;20150;-66
2022/03/05 12:46:59;;;;;;;38.95;16.77;;;;;;;;;;4949132;28;20055;-66
2022/03/05 12:49:25;;;;;;;32.83;13.82;;;;;;;;;;4949636;28;20062;-65
2022/03/05 12:51:51;;;;;;;39.05;16.73;;;;;;;;;;4949292;28;20062;-64
2022/03/05 12:54:18;;;;;;;38.22;16.48;;;;;;;;;;4948647;28;20062;-64
2022/03/05 12:56:44;;;;;;;39.67;16.23;;;;;;;;;;4949220;28;20047;-64
2022/03/05 12:59:13;;;;;;;32.22;15.38;;;;;;;;;;4949197;28;20448;-67
2022/03/05 13:01:39;;;;;;;;;;;;;;;;;;4949227;28;20058;-66
2022/03/05 13:04:06;;;;;;;38.45;15.98;;;;;;;;;;4948721;28;44918;-67
2022/03/05 13:06:32;;;;;;;38.17;16.75;;;;;;;;;;4948582;28;20058;-67
2022/03/05 13:08:59;;;;;;;36.45;15.55;;;;;;;;;;4948806;28;20056;-70
2022/03/05 13:11:49;;;;;;;36.50;16.33;;;;;;;;;;4948429;28;20056;-70
2022/03/05 13:14:19;;;;;;;42.05;17.95;;;;;;;;;;4948567;28;20058;-66
2022/03/05 13:16:48;;;;;;;39.35;17.55;;;;;;;;;;4948482;28;20056;-65
2022/03/05 13:19:14;;;;;;;39.08;16.40;;;;;;;;;;4948996;28;20147;-64
2022/03/05 13:21:45;;;;;;;38.45;16.98;;;;;;;;;;4948546;28;20058;-64
2022/03/05 13:24:15;;;;;;;37.47;16.45;;;;;;;;;;4948900;28;20059;-66
2022/03/05 13:26:48;;;;;;;34.20;15.95;;;;;;;;;;4948235;28;20078;-64
2022/03/05 13:29:15;;;;;;;37.30;16.58;;;;;;;;;;4948430;28;21440;-65
2022/03/05 13:31:41;;;;;;;39.38;18.20;;;;;;;;;;4948557;28;20138;-64
2022/03/05 13:34:07;;;;;;;37.03;16.55;;;;;;;;;;4949074;28;20058;-64
2022/03/05 13:36:38;;;;;;;39.25;17.02;;;;;;;;;;4948627;28;20199;-64
2022/03/05 13:39:11;;;;;;;40.17;17.13;;;;;;;;;;4948504;28;20061;-64
2022/03/05 13:41:43;;;;;;;37.95;16.05;;;;;;;;;;4949225;28;20056;-65
2022/03/05 13:44:30;;;;;;;37.80;16.38;;;;;;;;;;4948384;28;20083;-64
2022/03/05 13:46:58;;;;;;;37.47;16.92;;;;;;;;;;4948598;28;20051;-64
2022/03/05 13:49:25;;;;;;;40.00;17.33;;;;;;;;;;4947702;28;20055;-65
2022/03/05 13:51:55;;;;;;;43.13;18.08;;;;;;;;;;4948628;28;20516;-64
2022/03/05 13:54:37;;;;;;;38.13;16.75;;;;;;;;;;4949040;28;20047;-64
2022/03/05 13:57:05;;;;;;;42.92;17.10;;;;;;;;;;4948062;28;20051;-64
2022/03/05 13:59:35;;;;;;;35.22;15.52;;;;;;;;;;4949289;28;20155;-64
2022/03/05 14:02:01;;;;;;;36.58;16.00;;;;;;;;;;4948296;28;20483;-64
2022/03/05 14:04:28;;;;;;;38.40;16.92;;;;;;;;;;4948592;28;20064;-64
2022/03/05 14:06:55;;;;;;;38.53;16.83;;;;;;;;;;4948090;28;20142;-64
2022/03/05 14:09:34;;;;;;;36.30;16.63;;;;;;;;;;4948149;28;20089;-64
2022/03/05 14:12:10;;;;;;;39.65;17.08;;;;;;;;;;4947997;28;20059;-64
2022/03/05 14:14:37;;;;;;;34.85;15.65;;;;;;;;;;4947935;28;20178;-64
2022/03/05 14:17:04;;;;;;;34.47;16.42;;;;;;;;;;4948486;28;20465;-64
2022/03/05 14:19:30;;;;;;;42.03;17.95;;;;;;;;;;4947277;28;20532;-64
2022/03/05 14:22:04;;;;;;;38.88;17.10;;;;;;;;;;4948491;28;20119;-64
2022/03/05 14:24:30;;;;;;;39.28;17.42;;;;;;;;;;4947471;28;20702;-64
2022/03/05 14:26:56;;;;;;;36.83;15.85;;;;;;;;;;4951331;28;20052;-64
2022/03/05 14:29:23;;;;;;;37.90;16.73;;;;;;;;;;4951993;28;20143;-64
2022/03/05 14:31:49;;;;;;;36.13;15.95;;;;;;;;;;4951010;28;20051;-64
2022/03/05 14:34:21;;;;;;;36.45;17.13;;;;;;;;;;4950841;28;20498;-64
2022/03/05 14:36:48;;;;;;;38.03;16.27;;;;;;;;;;4950917;28;20083;-64